Time;durP1;ratioP1;P1;durP2;ratioP2;P2;SDS_P1;SDS_P2;PMS_P1;PMS_P2;Temp;Humidity;BMP_temperature;BMP_pressure;BME280_temperature;BME280_humidity;BME280_pressure;Samples;Min_cycle;Max_cycle;Signal;HPM_P1;HPM_P2
2022/11/28 00:01:49;;;;;;;7.57;5.60;;;;;;;;;;8348698;28;20094;-63
2022/11/28 00:05:50;;;;;;;6.80;5.50;;;;;;;;;;8348523;28;20095;-62
2022/11/28 00:09:51;;;;;;;8.57;5.50;;;;;;;;;;8348438;28;20030;-63
2022/11/28 00:13:52;;;;;;;9.20;5.90;;;;;;;;;;8348494;28;20020;-63
2022/11/28 00:17:52;;;;;;;7.70;5.60;;;;;;;;;;8349571;28;20055;-63
2022/11/28 00:21:53;;;;;;;9.57;6.03;;;;;;;;;;8348965;28;20099;-63
2022/11/28 00:25:57;;;;;;;6.72;5.57;;;;;;;;;;8347985;28;20052;-63
2022/11/28 00:29:57;;;;;;;11.20;6.65;;;;;;;;;;8348607;28;20039;-63
2022/11/28 00:33:58;;;;;;;11.95;7.20;;;;;;;;;;8345973;28;20527;-63
2022/11/28 00:37:58;;;;;;;9.02;6.18;;;;;;;;;;8337140;28;20494;-63
2022/11/28 00:41:59;;;;;;;9.95;6.53;;;;;;;;;;8328930;28;20060;-63
2022/11/28 00:45:59;;;;;;;9.25;6.80;;;;;;;;;;8338120;28;20053;-63
2022/11/28 00:49:59;;;;;;;8.93;6.47;;;;;;;;;;8331830;28;20024;-63
2022/11/28 00:54:00;;;;;;;8.63;5.85;;;;;;;;;;8336144;28;20282;-63
2022/11/28 00:58:00;;;;;;;9.02;5.90;;;;;;;;;;8325720;28;20162;-63
2022/11/28 01:02:01;;;;;;;7.32;5.85;;;;;;;;;;8341902;28;20647;-63
2022/11/28 01:06:02;;;;;;;11.77;7.72;;;;;;;;;;8338518;28;20040;-62
2022/11/28 01:10:03;;;;;;;13.35;7.53;;;;;;;;;;8341726;28;20020;-63
2022/11/28 01:14:03;;;;;;;7.90;5.63;;;;;;;;;;8344422;28;20029;-63
2022/11/28 01:18:03;;;;;;;11.80;7.65;;;;;;;;;;8346193;28;20037;-63
2022/11/28 01:22:05;;;;;;;9.73;6.40;;;;;;;;;;8346061;28;20037;-64
2022/11/28 01:26:06;;;;;;;12.15;7.55;;;;;;;;;;8346681;28;20285;-63
2022/11/28 01:30:07;;;;;;;10.25;7.20;;;;;;;;;;8346716;28;20035;-63
2022/11/28 01:34:07;;;;;;;8.45;6.30;;;;;;;;;;8347185;28;20029;-63
2022/11/28 01:38:07;;;;;;;8.07;5.55;;;;;;;;;;8346834;28;20492;-63
2022/11/28 01:42:13;;;;;;;6.55;5.35;;;;;;;;;;8342853;28;20052;-63
2022/11/28 01:46:13;;;;;;;8.02;5.90;;;;;;;;;;8342329;28;20033;-63
2022/11/28 01:50:14;;;;;;;6.80;5.65;;;;;;;;;;8342093;28;20025;-63
2022/11/28 01:54:15;;;;;;;7.45;5.63;;;;;;;;;;8348327;28;20476;-63
2022/11/28 01:58:16;;;;;;;7.07;4.97;;;;;;;;;;8348247;28;20278;-62
2022/11/28 02:02:24;;;;;;;7.75;5.40;;;;;;;;;;8341507;28;20110;-62
2022/11/28 02:06:24;;;;;;;6.28;4.68;;;;;;;;;;8341578;28;20162;-62
2022/11/28 02:10:27;;;;;;;7.47;5.93;;;;;;;;;;8342231;28;20056;-62
2022/11/28 02:14:30;;;;;;;7.85;5.45;;;;;;;;;;8341544;28;20469;-63
2022/11/28 02:18:33;;;;;;;8.27;5.25;;;;;;;;;;8347607;28;20159;-63
2022/11/28 02:22:43;;;;;;;11.15;5.78;;;;;;;;;;8333942;28;20416;-63
2022/11/28 02:26:43;;;;;;;7.05;5.15;;;;;;;;;;8346152;28;20075;-62
2022/11/28 02:30:49;;;;;;;7.13;5.45;;;;;;;;;;8337830;28;20557;-62
2022/11/28 02:34:52;;;;;;;6.88;5.22;;;;;;;;;;8349487;28;20020;-63
2022/11/28 02:39:01;;;;;;;11.13;5.80;;;;;;;;;;8342528;28;20541;-62
2022/11/28 02:43:01;;;;;;;8.90;5.60;;;;;;;;;;8334767;28;20613;-62
2022/11/28 02:47:04;;;;;;;8.00;5.55;;;;;;;;;;8337167;28;20678;-62
2022/11/28 02:51:08;;;;;;;9.13;6.55;;;;;;;;;;8346487;28;20063;-62
2022/11/28 02:55:09;;;;;;;8.88;5.85;;;;;;;;;;8348965;28;20452;-64
2022/11/28 02:59:29;;;;;;;7.65;5.63;;;;;;;;;;8350169;28;20024;-63
2022/11/28 03:03:50;;;;;;;7.00;5.45;;;;;;;;;;8336633;28;20040;-63
2022/11/28 03:07:59;;;;;;;7.20;5.72;;;;;;;;;;8342330;28;20029;-63
2022/11/28 03:11:59;;;;;;;7.47;5.28;;;;;;;;;;8331438;28;20503;-63
2022/11/28 03:16:09;;;;;;;8.45;5.60;;;;;;;;;;8342188;28;20036;-62
2022/11/28 03:20:15;;;;;;;6.97;5.10;;;;;;;;;;8343701;28;20571;-64
2022/11/28 03:24:15;;;;;;;8.77;5.68;;;;;;;;;;8349033;28;20016;-63
2022/11/28 03:28:36;;;;;;;7.03;5.47;;;;;;;;;;8349389;28;20013;-63
2022/11/28 03:32:38;;;;;;;6.65;5.18;;;;;;;;;;8348623;28;20788;-62
2022/11/28 03:36:41;;;;;;;8.30;5.63;;;;;;;;;;8351402;28;20139;-64
2022/11/28 03:40:45;;;;;;;8.80;5.55;;;;;;;;;;8350608;28;20081;-62
2022/11/28 03:44:52;;;;;;;6.63;5.28;;;;;;;;;;8351504;28;20051;-62
2022/11/28 03:48:55;;;;;;;7.00;5.55;;;;;;;;;;8348090;28;20079;-62
2022/11/28 03:52:59;;;;;;;8.43;5.53;;;;;;;;;;8350452;28;20472;-63
2022/11/28 03:57:20;;;;;;;7.63;5.60;;;;;;;;;;8349809;28;20036;-62
2022/11/28 04:01:20;;;;;;;7.68;5.53;;;;;;;;;;8349334;28;20391;-63
2022/11/28 04:05:30;;;;;;;7.97;5.35;;;;;;;;;;8350795;28;20020;-63
2022/11/28 04:09:33;;;;;;;6.95;5.53;;;;;;;;;;8349636;28;20020;-62
2022/11/28 04:13:33;;;;;;;7.55;5.28;;;;;;;;;;8346301;28;20020;-62
2022/11/28 04:17:37;;;;;;;7.47;5.82;;;;;;;;;;8343178;28;20449;-62
2022/11/28 04:21:43;;;;;;;6.95;5.30;;;;;;;;;;8343770;28;20505;-64
2022/11/28 04:25:45;;;;;;;7.50;5.35;;;;;;;;;;8345698;28;20025;-63
2022/11/28 04:29:48;;;;;;;6.00;4.88;;;;;;;;;;8342222;28;20029;-62
2022/11/28 04:33:50;;;;;;;6.95;5.40;;;;;;;;;;8341624;28;20043;-62
2022/11/28 04:37:51;;;;;;;6.20;5.18;;;;;;;;;;8347170;28;20047;-63
2022/11/28 04:42:05;;;;;;;7.65;5.15;;;;;;;;;;8346636;28;20079;-63
2022/11/28 04:46:10;;;;;;;7.03;5.25;;;;;;;;;;8345217;28;20029;-62
2022/11/28 04:50:12;;;;;;;5.75;5.00;;;;;;;;;;8345647;28;20093;-62
2022/11/28 04:54:23;;;;;;;7.88;5.43;;;;;;;;;;8345105;28;20081;-64
2022/11/28 04:58:27;;;;;;;12.15;5.40;;;;;;;;;;8349018;28;20433;-62
2022/11/28 05:02:28;;;;;;;7.47;5.50;;;;;;;;;;8354718;28;20028;-63
2022/11/28 05:06:30;;;;;;;6.03;4.93;;;;;;;;;;8347946;28;20145;-62
2022/11/28 05:10:30;;;;;;;6.50;5.25;;;;;;;;;;8339380;28;20024;-63
2022/11/28 05:14:31;;;;;;;6.57;5.10;;;;;;;;;;8324030;28;20025;-63
2022/11/28 05:18:31;;;;;;;6.78;5.03;;;;;;;;;;8345504;28;20035;-63
2022/11/28 05:22:31;;;;;;;5.63;4.40;;;;;;;;;;8345584;28;20485;-63
2022/11/28 05:26:33;;;;;;;7.70;5.03;;;;;;;;;;8356123;28;20016;-62
2022/11/28 05:30:33;;;;;;;6.93;5.35;;;;;;;;;;8353679;28;20281;-65
2022/11/28 05:34:33;;;;;;;8.63;4.95;;;;;;;;;;8354474;28;20643;-63
2022/11/28 05:38:34;;;;;;;5.82;4.75;;;;;;;;;;8344951;28;20034;-63
2022/11/28 05:42:34;;;;;;;10.48;6.18;;;;;;;;;;8348354;28;20020;-63
2022/11/28 05:46:34;;;;;;;11.18;7.40;;;;;;;;;;8354238;28;20028;-63
2022/11/28 05:50:37;;;;;;;11.13;6.93;;;;;;;;;;8348481;28;20654;-63
2022/11/28 05:54:37;;;;;;;7.90;5.93;;;;;;;;;;8349976;28;20025;-63
2022/11/28 05:58:37;;;;;;;9.37;5.90;;;;;;;;;;8344966;28;20060;-63
2022/11/28 06:02:38;;;;;;;6.95;5.22;;;;;;;;;;8340987;28;20287;-63
2022/11/28 06:06:38;;;;;;;7.13;5.43;;;;;;;;;;8345776;28;20021;-62
2022/11/28 06:10:38;;;;;;;7.00;5.17;;;;;;;;;;8360103;28;20032;-62
2022/11/28 06:14:38;;;;;;;7.50;4.97;;;;;;;;;;8348281;28;20373;-63
2022/11/28 06:18:39;;;;;;;5.97;4.83;;;;;;;;;;8353540;28;20123;-63
2022/11/28 06:22:39;;;;;;;13.77;5.25;;;;;;;;;;8360450;28;20792;-63
2022/11/28 06:26:39;;;;;;;6.35;5.00;;;;;;;;;;8358785;28;20025;-63
2022/11/28 06:30:41;;;;;;;8.13;4.70;;;;;;;;;;8357591;28;20544;-63
2022/11/28 06:34:41;;;;;;;9.77;5.30;;;;;;;;;;8347961;28;20021;-62
2022/11/28 06:38:42;;;;;;;10.05;5.55;;;;;;;;;;8333565;28;20393;-62
2022/11/28 06:42:42;;;;;;;7.43;5.07;;;;;;;;;;8340342;28;20260;-63
2022/11/28 06:46:42;;;;;;;6.88;4.95;;;;;;;;;;8346285;28;20094;-63
2022/11/28 06:50:42;;;;;;;8.20;5.05;;;;;;;;;;8332675;28;20044;-63
2022/11/28 06:54:43;;;;;;;7.70;4.75;;;;;;;;;;8343531;28;20356;-63
2022/11/28 06:58:44;;;;;;;6.93;4.55;;;;;;;;;;8344639;28;20216;-63
2022/11/28 07:02:44;;;;;;;9.25;6.28;;;;;;;;;;8350620;28;20648;-63
2022/11/28 07:06:44;;;;;;;7.70;6.13;;;;;;;;;;8345690;28;20394;-62
2022/11/28 07:10:44;;;;;;;9.73;6.20;;;;;;;;;;8344987;28;20340;-63
2022/11/28 07:14:44;;;;;;;8.10;5.97;;;;;;;;;;8352765;28;20016;-62
2022/11/28 07:18:45;;;;;;;9.73;6.05;;;;;;;;;;8350921;28;20348;-63
2022/11/28 07:22:48;;;;;;;9.18;6.68;;;;;;;;;;8346331;28;20020;-62
2022/11/28 07:26:48;;;;;;;6.25;5.63;;;;;;;;;;8344731;28;20040;-63
2022/11/28 07:30:56;;;;;;;8.45;6.50;;;;;;;;;;8351232;28;20524;-63
2022/11/28 07:34:56;;;;;;;8.00;6.53;;;;;;;;;;8349609;28;20040;-63
2022/11/28 07:38:57;;;;;;;12.85;8.10;;;;;;;;;;8351831;28;20029;-62
2022/11/28 07:42:58;;;;;;;14.93;8.73;;;;;;;;;;8348705;28;20198;-62
2022/11/28 07:46:58;;;;;;;14.95;8.45;;;;;;;;;;8348629;28;20072;-63
2022/11/28 07:50:58;;;;;;;13.07;8.07;;;;;;;;;;8349462;28;20032;-63
2022/11/28 07:54:59;;;;;;;14.48;7.75;;;;;;;;;;8350544;28;20495;-63
2022/11/28 07:58:59;;;;;;;13.60;8.20;;;;;;;;;;8350063;28;20024;-63
2022/11/28 08:02:59;;;;;;;9.13;6.95;;;;;;;;;;8351522;28;20028;-63
2022/11/28 08:06:59;;;;;;;8.07;6.20;;;;;;;;;;8346330;28;20147;-62
2022/11/28 08:11:01;;;;;;;6.50;5.72;;;;;;;;;;8351535;28;20020;-63
2022/11/28 08:15:01;;;;;;;7.32;5.55;;;;;;;;;;8348199;28;20554;-63
2022/11/28 08:19:01;;;;;;;8.10;4.30;;;;;;;;;;8349738;28;20043;-63
2022/11/28 08:23:02;;;;;;;5.68;3.88;;;;;;;;;;8349075;28;20486;-62
2022/11/28 08:27:02;;;;;;;5.20;3.23;;;;;;;;;;8352972;28;20028;-63
2022/11/28 08:31:09;;;;;;;5.30;3.30;;;;;;;;;;8359240;28;20271;-64
2022/11/28 08:35:09;;;;;;;5.78;3.50;;;;;;;;;;8349724;28;20774;-63
2022/11/28 08:39:10;;;;;;;4.40;3.30;;;;;;;;;;8342819;28;20032;-63
2022/11/28 08:43:10;;;;;;;5.43;3.30;;;;;;;;;;8338810;28;20248;-64
2022/11/28 08:47:10;;;;;;;5.10;3.45;;;;;;;;;;8347520;28;20029;-63
2022/11/28 08:51:13;;;;;;;4.80;3.05;;;;;;;;;;8332327;28;20025;-63
2022/11/28 08:55:13;;;;;;;4.72;3.38;;;;;;;;;;8322664;28;20099;-64
2022/11/28 08:59:13;;;;;;;4.63;3.28;;;;;;;;;;8344799;28;21108;-64
2022/11/28 09:03:14;;;;;;;5.28;3.20;;;;;;;;;;8353615;28;20413;-63
2022/11/28 09:07:14;;;;;;;5.00;3.10;;;;;;;;;;8338807;28;20095;-63
2022/11/28 09:11:16;;;;;;;4.72;3.00;;;;;;;;;;8340685;28;20099;-63
2022/11/28 09:15:17;;;;;;;7.38;3.08;;;;;;;;;;8352737;28;20025;-63
2022/11/28 09:19:18;;;;;;;5.50;3.10;;;;;;;;;;8355015;28;20024;-63
2022/11/28 09:23:18;;;;;;;7.40;3.10;;;;;;;;;;8338839;28;20056;-64
2022/11/28 09:27:18;;;;;;;3.95;3.00;;;;;;;;;;8353560;28;20299;-64
2022/11/28 09:31:19;;;;;;;5.78;3.08;;;;;;;;;;8349239;28;20035;-64
2022/11/28 09:35:19;;;;;;;5.80;3.17;;;;;;;;;;8354508;28;20020;-64
2022/11/28 09:39:19;;;;;;;5.43;3.20;;;;;;;;;;8356111;28;20023;-64
2022/11/28 09:43:19;;;;;;;4.28;2.90;;;;;;;;;;8354099;28;20416;-63
2022/11/28 09:47:24;;;;;;;5.28;2.97;;;;;;;;;;8351952;28;20032;-63
2022/11/28 09:51:43;;;;;;;8.23;5.10;;;;;;;;;;8352079;28;20043;-64
2022/11/28 09:55:46;;;;;;;6.93;4.90;;;;;;;;;;8354606;28;20151;-64
2022/11/28 09:59:46;;;;;;;12.05;5.65;;;;;;;;;;8353765;28;20016;-63
2022/11/28 10:04:05;;;;;;;8.65;5.55;;;;;;;;;;8348260;28;20043;-64
2022/11/28 10:08:13;;;;;;;9.02;5.63;;;;;;;;;;8334718;28;20128;-64
2022/11/28 10:12:23;;;;;;;6.03;4.95;;;;;;;;;;8349922;28;20096;-63
2022/11/28 10:16:33;;;;;;;8.32;5.05;;;;;;;;;;8351168;28;20268;-63
2022/11/28 10:20:37;;;;;;;4.60;3.00;;;;;;;;;;8336286;28;20025;-64
2022/11/28 10:24:48;;;;;;;3.50;2.85;;;;;;;;;;8351187;28;20027;-64
2022/11/28 10:28:50;;;;;;;3.78;2.70;;;;;;;;;;8348465;28;20021;-63
2022/11/28 10:32:59;;;;;;;3.90;2.67;;;;;;;;;;8347603;28;20394;-64
2022/11/28 10:37:12;;;;;;;3.60;2.65;;;;;;;;;;8344003;28;20017;-63
2022/11/28 10:41:32;;;;;;;7.38;3.22;;;;;;;;;;8347437;28;20229;-65
2022/11/28 10:45:45;;;;;;;3.35;2.65;;;;;;;;;;8345981;28;20043;-64
2022/11/28 10:50:03;;;;;;;5.60;4.00;;;;;;;;;;8339586;28;20035;-63
2022/11/28 10:54:22;;;;;;;14.73;8.43;;;;;;;;;;8351372;28;20226;-64
2022/11/28 10:58:26;;;;;;;6.22;4.55;;;;;;;;;;8351640;28;20024;-63
2022/11/28 11:02:26;;;;;;;5.15;3.00;;;;;;;;;;8354179;28;20701;-63
2022/11/28 11:06:26;;;;;;;3.63;2.70;;;;;;;;;;8355787;28;20377;-63
2022/11/28 11:10:45;;;;;;;5.17;3.10;;;;;;;;;;8355508;28;20136;-63
2022/11/28 11:14:45;;;;;;;5.88;3.00;;;;;;;;;;8354387;28;20411;-64
2022/11/28 11:18:46;;;;;;;3.13;2.40;;;;;;;;;;8353526;28;20151;-64
2022/11/28 11:22:53;;;;;;;3.40;2.80;;;;;;;;;;8350104;28;20367;-63
2022/11/28 11:27:01;;;;;;;5.05;2.65;;;;;;;;;;8353227;28;21112;-63
2022/11/28 11:31:02;;;;;;;5.57;3.50;;;;;;;;;;8352062;28;20071;-64
2022/11/28 11:35:02;;;;;;;5.07;3.67;;;;;;;;;;8353365;28;20017;-63
2022/11/28 11:39:24;;;;;;;5.55;3.85;;;;;;;;;;8348306;28;20103;-63
2022/11/28 11:43:28;;;;;;;8.30;3.45;;;;;;;;;;8350781;28;20017;-64
2022/11/28 11:47:39;;;;;;;4.57;3.22;;;;;;;;;;8353712;28;20033;-63
2022/11/28 11:51:39;;;;;;;5.35;3.10;;;;;;;;;;8344451;28;20031;-64
2022/11/28 11:55:51;;;;;;;3.92;3.10;;;;;;;;;;8327860;28;20024;-63
2022/11/28 11:59:54;;;;;;;3.28;2.97;;;;;;;;;;8355828;28;20024;-64
2022/11/28 12:03:59;;;;;;;4.00;3.00;;;;;;;;;;8336777;28;20241;-64
2022/11/28 12:08:27;;;;;;;4.95;3.38;;;;;;;;;;8352790;28;20123;-62
2022/11/28 12:12:29;;;;;;;8.55;6.85;;;;;;;;;;8319617;28;20033;-63
2022/11/28 12:16:29;;;;;;;15.38;10.23;;;;;;;;;;8351727;28;20029;-63
2022/11/28 12:20:43;;;;;;;11.30;7.22;;;;;;;;;;8353328;28;20038;-63
2022/11/28 12:24:49;;;;;;;12.98;10.70;;;;;;;;;;8350060;28;20544;-63
2022/11/28 12:28:49;;;;;;;11.35;7.90;;;;;;;;;;8346381;28;20925;-63
2022/11/28 12:32:52;;;;;;;9.00;5.93;;;;;;;;;;8348642;28;20029;-63
2022/11/28 12:36:53;;;;;;;9.40;5.20;;;;;;;;;;8350178;28;20588;-63
2022/11/28 12:41:05;;;;;;;6.43;5.18;;;;;;;;;;8351994;28;20017;-63
2022/11/28 12:45:17;;;;;;;9.05;6.38;;;;;;;;;;8347654;28;20046;-62
2022/11/28 12:49:40;;;;;;;10.18;7.43;;;;;;;;;;8350917;28;20092;-63
2022/11/28 12:53:59;;;;;;;8.80;6.40;;;;;;;;;;8344057;28;20568;-63
2022/11/28 12:58:18;;;;;;;8.77;6.35;;;;;;;;;;8346700;28;20028;-63
2022/11/28 13:02:28;;;;;;;10.57;6.60;;;;;;;;;;8325700;28;20047;-62
2022/11/28 13:06:47;;;;;;;9.70;6.10;;;;;;;;;;8353063;28;20025;-63
2022/11/28 13:11:06;;;;;;;10.60;6.75;;;;;;;;;;8355164;28;20576;-62
2022/11/28 13:15:10;;;;;;;7.82;6.28;;;;;;;;;;8351922;28;20020;-63
2022/11/28 13:19:13;;;;;;;10.32;6.47;;;;;;;;;;8352100;28;20063;-63
2022/11/28 13:23:14;;;;;;;13.07;6.93;;;;;;;;;;8348644;28;21035;-63
2022/11/28 13:27:23;;;;;;;10.20;6.60;;;;;;;;;;8353276;28;20055;-64
2022/11/28 13:31:26;;;;;;;11.52;7.40;;;;;;;;;;8350594;28;20127;-63
2022/11/28 13:35:27;;;;;;;12.17;6.80;;;;;;;;;;8346259;28;20025;-63
2022/11/28 13:39:46;;;;;;;9.95;6.32;;;;;;;;;;8345690;28;20021;-63
2022/11/28 13:44:04;;;;;;;11.07;7.20;;;;;;;;;;8350240;28;20027;-64
2022/11/28 13:48:23;;;;;;;39.97;32.25;;;;;;;;;;8339493;28;20083;-63
2022/11/28 13:52:28;;;;;;;19.63;15.00;;;;;;;;;;8355578;28;20026;-63
2022/11/28 13:56:28;;;;;;;14.90;9.93;;;;;;;;;;8324073;28;20047;-63
2022/11/28 14:00:28;;;;;;;13.83;9.27;;;;;;;;;;8348788;28;20044;-63
2022/11/28 14:04:29;;;;;;;12.27;8.73;;;;;;;;;;8349975;28;20363;-63
2022/11/28 14:08:35;;;;;;;18.05;13.07;;;;;;;;;;8350301;28;20052;-63
2022/11/28 14:12:42;;;;;;;22.05;16.75;;;;;;;;;;8351857;28;20488;-64
2022/11/28 14:16:42;;;;;;;18.90;12.20;;;;;;;;;;8353702;28;20103;-64
2022/11/28 14:20:54;;;;;;;13.73;9.40;;;;;;;;;;8352211;28;20028;-63
2022/11/28 14:25:18;;;;;;;12.30;8.98;;;;;;;;;;8353004;28;20680;-63
2022/11/28 14:29:30;;;;;;;34.97;10.18;;;;;;;;;;8322537;28;20045;-63
2022/11/28 14:33:32;;;;;;;68.22;13.00;;;;;;;;;;8341147;28;20134;-63
2022/11/28 14:37:46;;;;;;;102.95;13.93;;;;;;;;;;8344758;28;20104;-63
2022/11/28 14:42:04;;;;;;;25.00;12.30;;;;;;;;;;8349844;28;20071;-64
2022/11/28 14:46:14;;;;;;;17.50;11.75;;;;;;;;;;8352821;28;20783;-62
2022/11/28 14:50:16;;;;;;;41.65;12.45;;;;;;;;;;8352810;28;20079;-62
2022/11/28 14:54:16;;;;;;;22.30;10.82;;;;;;;;;;8358860;28;20047;-64
2022/11/28 14:58:18;;;;;;;61.15;10.65;;;;;;;;;;8359216;28;20025;-63
2022/11/28 15:02:22;;;;;;;17.00;9.43;;;;;;;;;;8345405;28;20055;-62
2022/11/28 15:06:27;;;;;;;227.05;14.95;;;;;;;;;;8347655;28;20032;-61
2022/11/28 15:10:35;;;;;;;218.15;14.57;;;;;;;;;;8346716;28;20032;-60
2022/11/28 15:14:35;;;;;;;142.15;12.93;;;;;;;;;;8319974;28;20029;-60
2022/11/28 15:18:37;;;;;;;25.45;11.05;;;;;;;;;;8343794;28;20095;-61
2022/11/28 15:22:39;;;;;;;13.10;10.15;;;;;;;;;;8340574;28;20436;-60
2022/11/28 15:26:39;;;;;;;11.75;8.70;;;;;;;;;;8345905;28;20082;-61
2022/11/28 15:30:43;;;;;;;43.58;10.20;;;;;;;;;;8342085;28;20583;-60
2022/11/28 15:34:49;;;;;;;100.47;10.95;;;;;;;;;;8339720;28;20015;-61
2022/11/28 15:38:49;;;;;;;34.03;9.60;;;;;;;;;;8342220;28;20217;-62
2022/11/28 15:42:50;;;;;;;123.43;11.05;;;;;;;;;;8342073;28;20070;-62
2022/11/28 15:46:50;;;;;;;94.25;11.40;;;;;;;;;;8341752;28;20029;-61
2022/11/28 15:50:50;;;;;;;38.95;9.60;;;;;;;;;;8340808;28;20518;-62
2022/11/28 15:54:50;;;;;;;43.15;10.95;;;;;;;;;;8345490;28;20132;-61
2022/11/28 15:58:51;;;;;;;69.47;10.48;;;;;;;;;;8343212;28;20507;-63
2022/11/28 16:02:52;;;;;;;36.47;9.50;;;;;;;;;;8343574;28;20025;-61
2022/11/28 16:06:55;;;;;;;16.95;8.98;;;;;;;;;;8342799;28;20036;-62
2022/11/28 16:10:56;;;;;;;116.32;10.98;;;;;;;;;;8345154;28;20504;-61
2022/11/28 16:15:00;;;;;;;59.35;10.02;;;;;;;;;;8344988;28;20429;-61
2022/11/28 16:19:03;;;;;;;151.43;11.32;;;;;;;;;;8342934;28;20075;-61
2022/11/28 16:23:07;;;;;;;34.63;9.18;;;;;;;;;;8343990;28;20021;-62
2022/11/28 16:27:23;;;;;;;33.72;9.77;;;;;;;;;;8337462;28;20024;-62
2022/11/28 16:31:25;;;;;;;16.10;8.70;;;;;;;;;;8340897;28;20086;-62
2022/11/28 16:35:28;;;;;;;16.00;9.65;;;;;;;;;;8339699;28;20070;-61
2022/11/28 16:39:28;;;;;;;26.35;11.85;;;;;;;;;;8343456;28;20102;-62
2022/11/28 16:43:33;;;;;;;30.15;12.65;;;;;;;;;;8335446;28;20012;-62
2022/11/28 16:47:35;;;;;;;26.95;12.35;;;;;;;;;;8338716;28;20037;-62
2022/11/28 16:51:39;;;;;;;25.13;12.45;;;;;;;;;;8340947;28;20055;-62
2022/11/28 16:55:39;;;;;;;22.83;11.57;;;;;;;;;;8338060;28;20031;-62
2022/11/28 16:59:40;;;;;;;19.73;10.82;;;;;;;;;;8344034;28;20127;-62
2022/11/28 17:03:55;;;;;;;19.33;10.70;;;;;;;;;;8342317;28;20573;-62
2022/11/28 17:07:55;;;;;;;16.70;10.77;;;;;;;;;;8330640;28;20398;-62
2022/11/28 17:11:58;;;;;;;15.43;9.65;;;;;;;;;;8313684;28;20489;-62
2022/11/28 17:15:58;;;;;;;15.07;10.02;;;;;;;;;;8333141;28;20036;-61
2022/11/28 17:19:59;;;;;;;18.48;11.40;;;;;;;;;;8336669;28;20560;-61
2022/11/28 17:23:59;;;;;;;20.77;13.23;;;;;;;;;;8336310;28;20024;-61
2022/11/28 17:28:00;;;;;;;31.45;15.63;;;;;;;;;;8335744;28;20554;-62
2022/11/28 17:32:01;;;;;;;25.85;14.65;;;;;;;;;;8323148;28;20048;-62
2022/11/28 17:36:02;;;;;;;22.30;14.70;;;;;;;;;;8334111;28;20974;-61
2022/11/28 17:44:23;;;;;;;29.13;16.33;;;;;;;;;;8335134;28;20240;-62
2022/11/28 17:48:23;;;;;;;26.92;14.88;;;;;;;;;;8345222;28;20029;-62
2022/11/28 17:52:28;;;;;;;20.95;14.40;;;;;;;;;;8347566;28;20409;-62
2022/11/28 17:56:31;;;;;;;21.23;13.07;;;;;;;;;;8346903;28;20143;-62
2022/11/28 18:00:32;;;;;;;18.05;12.70;;;;;;;;;;8343753;28;20062;-62
2022/11/28 18:04:33;;;;;;;23.40;13.23;;;;;;;;;;8345316;28;20023;-62
2022/11/28 18:08:33;;;;;;;19.05;12.60;;;;;;;;;;8346815;28;20089;-62
2022/11/28 18:12:34;;;;;;;19.52;11.98;;;;;;;;;;8347126;28;20271;-62
2022/11/28 18:16:38;;;;;;;16.60;11.55;;;;;;;;;;8346828;28;20067;-62
2022/11/28 18:20:39;;;;;;;19.88;11.73;;;;;;;;;;8344027;28;20030;-61
2022/11/28 18:24:39;;;;;;;15.85;10.95;;;;;;;;;;8346466;28;20130;-62
2022/11/28 18:28:39;;;;;;;17.95;12.32;;;;;;;;;;8345009;28;20032;-62
2022/11/28 18:32:40;;;;;;;19.48;11.77;;;;;;;;;;8346518;28;20025;-62
2022/11/28 18:36:40;;;;;;;17.25;10.80;;;;;;;;;;8336753;28;20603;-62
2022/11/28 18:40:40;;;;;;;15.82;11.38;;;;;;;;;;8345939;28;20104;-61
2022/11/28 18:44:40;;;;;;;14.75;9.55;;;;;;;;;;8345627;28;20076;-62
2022/11/28 18:48:42;;;;;;;12.98;9.35;;;;;;;;;;8344478;28;20141;-62
2022/11/28 18:52:42;;;;;;;11.82;7.40;;;;;;;;;;8343156;28;20171;-62
2022/11/28 18:56:42;;;;;;;10.88;7.70;;;;;;;;;;8344899;28;20468;-62
2022/11/28 19:00:42;;;;;;;9.32;6.90;;;;;;;;;;8336825;28;20457;-62
2022/11/28 19:04:43;;;;;;;7.93;5.93;;;;;;;;;;8339755;28;20020;-61
2022/11/28 19:08:43;;;;;;;14.02;9.60;;;;;;;;;;8344545;28;20029;-62
2022/11/28 19:12:43;;;;;;;14.40;10.10;;;;;;;;;;8341285;28;20025;-62
2022/11/28 19:16:44;;;;;;;16.95;10.45;;;;;;;;;;8343452;28;20218;-62
2022/11/28 19:20:45;;;;;;;23.75;13.93;;;;;;;;;;8341439;28;20017;-61
2022/11/28 19:24:45;;;;;;;23.23;14.75;;;;;;;;;;8343743;28;20020;-62
2022/11/28 19:28:45;;;;;;;21.25;13.35;;;;;;;;;;8340971;28;20302;-62
2022/11/28 19:32:46;;;;;;;24.52;15.10;;;;;;;;;;8344768;28;20033;-62
2022/11/28 19:36:47;;;;;;;21.65;15.52;;;;;;;;;;8340602;28;20016;-62
2022/11/28 19:40:48;;;;;;;22.38;16.17;;;;;;;;;;8344777;28;20031;-62
2022/11/28 19:44:48;;;;;;;21.08;14.52;;;;;;;;;;8341504;28;20024;-62
2022/11/28 19:48:50;;;;;;;20.20;14.02;;;;;;;;;;8342979;28;20494;-62
2022/11/28 19:52:50;;;;;;;20.58;14.90;;;;;;;;;;8335615;28;20565;-62
2022/11/28 19:56:50;;;;;;;22.65;14.70;;;;;;;;;;8342455;28;20592;-61
2022/11/28 20:00:51;;;;;;;16.50;12.85;;;;;;;;;;8332196;28;20525;-62
2022/11/28 20:04:51;;;;;;;18.87;14.03;;;;;;;;;;8337503;28;20075;-62
2022/11/28 20:08:51;;;;;;;17.02;12.52;;;;;;;;;;8331453;28;20032;-61
2022/11/28 20:12:53;;;;;;;19.63;14.20;;;;;;;;;;8340120;28;20114;-61
2022/11/28 20:16:53;;;;;;;16.85;12.80;;;;;;;;;;8340570;28;20099;-61
2022/11/28 20:20:53;;;;;;;17.88;13.38;;;;;;;;;;8336288;28;20125;-61
2022/11/28 20:24:53;;;;;;;17.80;13.30;;;;;;;;;;8341173;28;20033;-61
2022/11/28 20:28:54;;;;;;;19.73;13.13;;;;;;;;;;8342690;28;20365;-61
2022/11/28 20:33:01;;;;;;;17.95;13.23;;;;;;;;;;8301185;28;20453;-62
2022/11/28 20:37:02;;;;;;;22.13;14.23;;;;;;;;;;8318955;28;20176;-62
2022/11/28 20:41:06;;;;;;;20.35;14.07;;;;;;;;;;8318353;28;20562;-62
2022/11/28 20:45:06;;;;;;;21.63;15.18;;;;;;;;;;8313847;28;20419;-62
2022/11/28 20:49:06;;;;;;;19.95;14.95;;;;;;;;;;8320069;28;20052;-62
2022/11/28 20:53:07;;;;;;;23.83;15.80;;;;;;;;;;8320982;28;20102;-61
2022/11/28 20:57:07;;;;;;;21.50;15.45;;;;;;;;;;8318480;28;20020;-62
2022/11/28 21:01:11;;;;;;;19.08;14.20;;;;;;;;;;8316006;28;20048;-61
2022/11/28 21:05:11;;;;;;;21.02;14.60;;;;;;;;;;8310951;28;20665;-62
2022/11/28 21:09:11;;;;;;;15.38;11.15;;;;;;;;;;8317562;28;20348;-62
2022/11/28 21:13:12;;;;;;;11.93;9.63;;;;;;;;;;8317254;28;20405;-62
2022/11/28 21:17:12;;;;;;;11.40;8.53;;;;;;;;;;8331792;28;20028;-62
2022/11/28 21:21:14;;;;;;;12.00;8.88;;;;;;;;;;8350415;28;20033;-61
2022/11/28 21:25:14;;;;;;;10.45;7.88;;;;;;;;;;8345823;28;20125;-62
2022/11/28 21:29:14;;;;;;;12.00;10.45;;;;;;;;;;8349739;28;20025;-62
2022/11/28 21:33:14;;;;;;;12.20;9.70;;;;;;;;;;8346655;28;20052;-62
2022/11/28 21:37:14;;;;;;;14.17;10.47;;;;;;;;;;8349078;28;20016;-62
2022/11/28 21:41:15;;;;;;;15.82;9.40;;;;;;;;;;8345046;28;20263;-61
2022/11/28 21:45:15;;;;;;;13.43;10.27;;;;;;;;;;8326233;28;20043;-62
2022/11/28 21:49:16;;;;;;;13.07;10.40;;;;;;;;;;8318887;28;20147;-61
2022/11/28 21:53:16;;;;;;;13.75;11.30;;;;;;;;;;8326496;28;20639;-62
2022/11/28 21:57:17;;;;;;;18.90;12.85;;;;;;;;;;8324565;28;20044;-61
2022/11/28 22:01:19;;;;;;;13.52;11.13;;;;;;;;;;8329868;28;20135;-61
2022/11/28 22:05:19;;;;;;;12.63;9.98;;;;;;;;;;8327984;28;20098;-61
2022/11/28 22:09:19;;;;;;;13.15;10.77;;;;;;;;;;8328485;28;20378;-62
2022/11/28 22:13:19;;;;;;;13.70;10.35;;;;;;;;;;8329868;28;20528;-61
2022/11/28 22:17:19;;;;;;;12.38;10.02;;;;;;;;;;8331234;28;20471;-61
2022/11/28 22:21:20;;;;;;;11.25;8.73;;;;;;;;;;8327133;28;20561;-61
2022/11/28 22:25:20;;;;;;;10.32;8.70;;;;;;;;;;8327358;28;20033;-62
2022/11/28 22:29:20;;;;;;;10.45;8.40;;;;;;;;;;8328147;28;21080;-61
2022/11/28 22:33:20;;;;;;;10.77;8.23;;;;;;;;;;8328857;28;20036;-61
2022/11/28 22:37:21;;;;;;;10.02;7.93;;;;;;;;;;8328301;28;20287;-62
2022/11/28 22:41:22;;;;;;;12.05;8.80;;;;;;;;;;8328954;28;20572;-62
2022/11/28 22:45:23;;;;;;;9.68;7.72;;;;;;;;;;8328745;28;20106;-62
2022/11/28 22:49:23;;;;;;;12.55;8.48;;;;;;;;;;8329176;28;20036;-62
2022/11/28 22:53:23;;;;;;;8.83;7.93;;;;;;;;;;8328523;28;20029;-62
2022/11/28 22:57:23;;;;;;;9.87;8.43;;;;;;;;;;8327543;28;20029;-63
2022/11/28 23:01:25;;;;;;;13.15;9.27;;;;;;;;;;8325093;28;20283;-61
2022/11/28 23:05:25;;;;;;;10.18;7.57;;;;;;;;;;8327965;28;20021;-62
2022/11/28 23:09:26;;;;;;;9.90;7.50;;;;;;;;;;8329419;28;20072;-61
2022/11/28 23:13:26;;;;;;;11.52;8.23;;;;;;;;;;8329024;28;20274;-62
2022/11/28 23:17:26;;;;;;;9.38;7.55;;;;;;;;;;8327088;28;20362;-62
2022/11/28 23:21:31;;;;;;;9.38;7.95;;;;;;;;;;8326211;28;20032;-61
2022/11/28 23:25:31;;;;;;;10.05;7.43;;;;;;;;;;8324504;28;20054;-62
2022/11/28 23:29:31;;;;;;;9.48;8.15;;;;;;;;;;8324376;28;20121;-61
2022/11/28 23:33:32;;;;;;;8.43;7.40;;;;;;;;;;8325011;28;20035;-61
2022/11/28 23:37:35;;;;;;;8.55;7.68;;;;;;;;;;8325007;28;20035;-61
2022/11/28 23:41:35;;;;;;;8.73;7.83;;;;;;;;;;8325651;28;20037;-62
2022/11/28 23:45:35;;;;;;;8.63;7.28;;;;;;;;;;8325829;28;20067;-61
2022/11/28 23:49:36;;;;;;;10.15;6.88;;;;;;;;;;8325418;28;20024;-62
2022/11/28 23:53:36;;;;;;;8.65;7.47;;;;;;;;;;8327108;28;20021;-61
2022/11/28 23:57:36;;;;;;;8.40;7.60;;;;;;;;;;8324480;28;20028;-61
